Latest Weather Observations for Cape Leeuwin

IDW60801

Issued at 11:34 pm WST Friday 28 February 2020 (issued every 10 minutes, with the page automatically refreshed every 10 minutes)

About weather observations | Map of weather stations | Latest weather observations for WA | Other Formats
Station Details ID: 009518 Name: CAPE LEEUWIN Lat: -34.37 Lon: 115.14 Height: 13.0 m
Data from the previous 72 hours. | See also: Recent months at Cape Leeuwin
Date/Time
WST
Temp
°C
App
Temp
°C
Dew
Point
°C
Rel
Hum
%
Delta-T
°C
Wind Press
QNH
hPa
Press
MSL
hPa
Rain since
9am
mm
Dir  Spd
km/h
Gust
km/h
Spd
kts
Gust
kts
28/11:30pm 22.1 23.3 19.8 87 1.5 NNW 13 17 7 9 1007.1 1007.0 0.2
28/11:00pm 22.3 21.9 20.2 88 1.4 NW 22 26 12 14 1007.4 1007.3 0.2
28/10:30pm 22.7 23.4 19.7 83 1.9 NNW 15 24 8 13 1007.8 1007.7 0.2
28/10:00pm 22.2 23.1 19.2 83 1.9 NE 13 17 7 9 1007.7 1007.6 0.2
28/09:30pm 22.8 23.3 19.2 80 2.3 NNE 15 20 8 11 1007.3 1007.2 0.2
28/09:00pm 23.2 23.0 19.8 81 2.2 NNW 20 28 11 15 1007.1 1007.0 0.2
28/08:30pm 23.4 22.7 19.5 79 2.5 NW 22 30 12 16 1007.2 1007.1 0.2
28/08:00pm 23.3 24.3 19.5 79 2.4 NW 13 19 7 10 1006.8 1006.7 0.2
28/07:30pm 23.9 22.5 19.6 77 2.8 NNW 26 33 14 18 1006.3 1006.2 0.2
28/07:00pm 23.9 23.5 19.4 76 2.9 NW 20 30 11 16 1005.8 1005.7 0.2
28/06:30pm 25.2 24.0 19.3 70 3.8 NNW 24 32 13 17 1005.3 1005.2 0.2
28/06:00pm 24.9 21.6 19.3 71 3.6 NW 35 41 19 22 1005.1 1005.0 0.2
28/05:30pm 24.9 22.4 19.7 73 3.4 NW 32 39 17 21 1005.2 1005.1 0.2
28/05:00pm 24.1 20.6 19.6 76 2.9 NW 37 43 20 23 1005.1 1005.0 0.2
28/04:30pm 24.2 22.4 19.5 75 3.0 NW 28 43 15 23 1005.1 1005.0 0.2
28/04:00pm 24.9 24.3 19.7 73 3.4 WNW 22 32 12 17 1004.9 1004.8 0.2
28/03:30pm 25.5 26.5 18.7 66 4.3 WSW 11 20 6 11 1004.9 1004.8 0.2
28/03:00pm 28.5 27.3 17.1 50 7.2 NE 19 32 10 17 1004.9 1004.8 0.2
28/02:30pm 33.2 29.9 16.1 35 10.8 N 28 39 15 21 1004.7 1004.6 0.2
28/02:00pm 33.4 29.5 15.4 34 11.2 NNE 30 48 16 26 1005.2 1005.1 0.2
28/01:30pm 33.3 29.7 16.2 36 10.8 N 30 52 16 28 1005.6 1005.5 0.2
28/01:07pm 33.1 29.0 16.5 37 10.5 NNE 33 52 18 28 1005.8 1005.7 0.2
28/01:00pm 32.2 28.2 16.1 38 10.1 N 32 44 17 24 1005.9 1005.8 0.2
28/12:30pm 32.6 28.1 16.4 37 10.2 N 35 59 19 32 1006.5 1006.4 0.2
28/12:00pm 32.2 28.5 16.9 40 9.7 N 32 54 17 29 1006.7 1006.6 0.2
28/11:30am 31.8 28.2 17.3 42 9.2 N 32 50 17 27 1007.0 1006.9 0.2
28/11:25am 30.9 28.1 17.2 43 8.7 N 28 50 15 27 1007.2 1007.1 0.2
28/11:00am 31.1 28.7 16.3 41 9.3 N 24 41 13 22 1007.5 1007.4 0.2
28/10:30am 31.3 27.7 17.6 44 8.7 N 33 54 18 29 1007.9 1007.8 0.2
28/10:24am 30.6 26.9 17.0 44 8.6 N 32 54 17 29 1008.0 1007.9 0.2
28/10:12am 30.5 27.9 17.9 47 8.1 N 28 46 15 25 1008.1 1008.0 0.2
28/10:00am 29.8 30.6 19.8 55 6.6 N 15 24 8 13 1008.2 1008.1 0.2
28/09:30am 26.1 27.7 19.2 65 4.4 SW 9 15 5 8 1008.0 1007.9 0.0
28/09:00am 24.6 26.2 18.3 68 4.0 SSE 7 13 4 7 1007.9 1007.8 1.4
28/08:30am 23.6 24.8 19.1 76 2.9 S 11 15 6 8 1007.8 1007.7 1.4
28/08:00am 22.7 24.4 19.3 81 2.2 S 9 13 5 7 1007.8 1007.7 1.4
28/07:30am 22.2 20.5 19.0 82 2.0 ENE 26 32 14 17 1007.3 1007.2 1.4
28/07:00am 21.1 18.1 19.0 88 1.3 ENE 33 39 18 21 1007.4 1007.3 1.4
28/06:30am 21.1 19.0 19.0 88 1.3 ENE 28 33 15 18 1007.5 1007.4 1.4
28/06:00am 21.0 18.5 18.9 88 1.3 E 30 35 16 19 1007.1 1007.0 1.4
28/05:30am 21.2 19.0 18.8 86 1.5 E 28 32 15 17 1007.6 1007.5 1.4
28/05:00am 21.1 18.8 18.5 85 1.6 ESE 28 33 15 18 1007.6 1007.5 1.4
28/04:30am 21.1 19.6 18.5 85 1.6 ESE 24 28 13 15 1008.2 1008.1 1.4
28/04:00am 21.0 18.3 18.4 85 1.6 E 30 35 16 19 1008.2 1008.1 1.4
28/03:30am 21.1 20.4 18.3 84 1.7 ESE 19 22 10 12 1009.4 1009.3 1.4
28/03:00am 20.9 19.7 18.5 86 1.5 ESE 22 28 12 15 1009.3 1009.2 1.4
28/02:30am 21.1 19.6 18.5 85 1.6 E 24 28 13 15 1009.1 1009.0 1.4
28/02:00am 21.3 20.2 18.7 85 1.6 E 22 28 12 15 1008.9 1008.8 1.4
28/01:30am 21.3 20.9 19.0 87 1.5 ESE 19 22 10 12 1009.5 1009.4 1.4
28/01:00am 21.0 21.6 18.6 86 1.5 SE 13 15 7 8 1009.8 1009.7 1.4
28/12:30am 21.2 21.9 18.0 82 2.0 S 11 13 6 7 1009.7 1009.6 1.4
28/12:00am 21.6 21.2 18.0 80 2.2 W 17 26 9 14 1010.2 1010.1 1.4
 
Date/Time
WST
Temp
°C
App
Temp
°C
Dew
Point
°C
Rel
Hum
%
Delta-T
°C
Wind Press
QNH
hPa
Press
MSL
hPa
Rain since
9am
mm
Dir  Spd
km/h
Gust
km/h
Spd
kts
Gust
kts
27/11:53pm 21.6 19.0 17.8 79 2.4 ENE 28 35 15 19 1010.2 1010.1 1.4
27/11:30pm 21.7 17.4 17.9 79 2.4 ENE 37 43 20 23 1009.7 1009.6 1.4
27/11:00pm 22.4 17.5 18.2 77 2.6 ENE 41 46 22 25 1009.5 1009.4 1.4
27/10:30pm 22.4 17.5 18.2 77 2.6 ENE 41 44 22 24 1009.8 1009.7 1.4
27/10:00pm 22.7 17.5 18.3 76 2.8 ENE 43 46 23 25 1009.8 1009.7 1.4
27/09:30pm 22.4 18.6 19.0 81 2.2 ENE 37 43 20 23 1010.0 1009.9 1.4
27/09:00pm 22.9 19.1 18.9 78 2.5 ENE 37 43 20 23 1010.2 1010.1 1.4
27/08:30pm 23.2 19.8 18.1 73 3.2 ENE 33 37 18 20 1010.8 1010.7 1.4
27/08:00pm 23.3 20.5 19.0 77 2.7 ENE 32 35 17 19 1010.1 1010.0 1.4
27/07:30pm 22.7 20.9 19.5 82 2.0 ENE 28 33 15 18 1010.0 1009.9 1.4
27/07:00pm 22.7 20.6 19.7 83 1.9 ENE 30 35 16 19 1009.8 1009.7 1.4
27/06:30pm 23.0 20.9 19.8 82 2.1 ENE 30 35 16 19 1009.4 1009.3 1.4
27/06:00pm 23.4 20.4 19.8 80 2.3 ENE 35 43 19 23 1009.3 1009.2 1.4
27/05:30pm 23.8 19.2 19.7 78 2.6 E 43 48 23 26 1009.3 1009.2 0.8
27/05:00pm 22.9 17.0 19.7 82 2.1 E 50 65 27 35 1008.7 1008.6 0.8
27/04:30pm 21.9 15.8 19.3 85 1.7 ESE 50 59 27 32 1009.5 1009.4 0.8
27/04:00pm 22.2 15.6 19.0 82 2.0 ESE 52 61 28 33 1009.2 1009.1 0.8
27/03:30pm 21.8 15.6 19.0 84 1.8 ESE 50 59 27 32 1010.4 1010.3 0.8
27/03:00pm 21.7 15.7 18.7 83 1.9 ESE 48 59 26 32 1010.9 1010.8 0.8
27/02:30pm 22.1 16.9 18.7 81 2.1 SE 44 56 24 30 1011.4 1011.3 0.8
27/02:00pm 22.2 18.0 18.8 81 2.1 SE 39 50 21 27 1012.0 1011.9 0.8
27/01:30pm 22.9 20.5 19.1 79 2.4 SE 30 37 16 20 1012.7 1012.6 0.8
27/01:00pm 22.8 23.4 19.4 81 2.2 SE 15 22 8 12 1013.9 1013.8 0.8
27/12:44pm 22.1 23.4 19.3 84 1.8 ENE 11 26 6 14 1014.5 1014.4 0.8
27/12:30pm 21.3 16.1 18.7 85 1.6 ENE 44 54 24 29 1013.7 1013.6 0.8
27/12:00pm 20.9 13.6 18.3 85 1.6 ENE 54 65 29 35 1012.5 1012.4 0.8
27/11:30am 20.2 12.8 18.1 88 1.3 E 54 65 29 35 1012.6 1012.5 0.8
27/11:00am 19.7 11.5 18.5 93 0.7 ESE 59 70 32 38 1013.4 1013.3 0.8
27/10:30am 19.1 10.2 17.6 91 0.9 ESE 61 69 33 37 1014.8 1014.7 0.2
27/10:00am 19.4 13.3 17.5 89 1.2 ESE 46 56 25 30 1016.5 1016.4 0.0
27/09:30am 19.1 13.5 17.4 90 1.0 SE 43 52 23 28 1016.7 1016.6 0.0
27/09:00am 18.9 15.2 17.4 91 0.9 SE 33 43 18 23 1017.7 1017.6 4.6
27/08:30am 19.4 16.4 16.8 85 1.6 SE 28 41 15 22 1019.4 1019.3 0.4
27/08:27am 19.5 16.1 16.7 84 1.7 SE 30 43 16 23 1018.9 1018.8 0.0
27/08:00am 19.9 14.5 16.9 83 1.8 SE 41 48 22 26 1016.8 1016.7 0.0
27/07:30am 19.9 15.1 16.7 82 1.9 SE 37 46 20 25 1016.7 1016.6 0.0
27/07:00am 19.9 15.5 16.7 82 1.9 SE 35 44 19 24 1016.5 1016.4 0.0
27/06:30am 19.7 15.8 16.9 84 1.7 SE 33 41 18 22 1015.9 1015.8 0.0
27/06:00am 19.3 16.9 16.5 84 1.7 ESE 24 33 13 18 1016.7 1016.6 0.0
27/05:57am 19.1 15.9 16.3 84 1.7 E 28 35 15 19 1016.7 1016.6 0.0
27/05:30am 19.2 13.3 16.6 85 1.6 E 43 52 23 28 1014.8 1014.7 0.0
27/05:00am 19.2 10.8 16.6 85 1.6 ENE 56 67 30 36 1013.6 1013.5 0.0
27/04:30am 19.3 10.3 16.5 84 1.7 E 59 72 32 39 1013.3 1013.2 0.0
27/04:00am 19.3 11.2 16.3 83 1.8 E 54 63 29 34 1013.5 1013.4 0.0
27/03:30am 19.6 14.4 16.6 83 1.8 ESE 39 46 21 25 1014.0 1013.9 0.0
27/03:00am 19.4 14.2 16.6 84 1.7 ESE 39 46 21 25 1015.0 1014.9 0.0
27/02:30am 19.5 14.4 16.9 85 1.6 ESE 39 46 21 25 1015.1 1015.0 0.0
27/02:00am 19.6 15.8 16.6 83 1.8 ESE 32 37 17 20 1016.0 1015.9 0.0
27/01:30am 20.4 16.6 16.8 80 2.2 ESE 32 39 17 21 1016.6 1016.5 0.0
27/01:00am 20.2 14.9 16.4 79 2.3 ESE 39 46 21 25 1016.0 1015.9 0.0
27/12:30am 20.8 14.7 16.6 77 2.5 ESE 44 54 24 29 1015.7 1015.6 0.0
27/12:00am 20.3 11.9 16.5 79 2.3 ESE 56 63 30 34 1014.7 1014.6 0.0
 
Date/Time
WST
Temp
°C
App
Temp
°C
Dew
Point
°C
Rel
Hum
%
Delta-T
°C
Wind Press
QNH
hPa
Press
MSL
hPa
Rain since
9am
mm
Dir  Spd
km/h
Gust
km/h
Spd
kts
Gust
kts
26/11:30pm 20.5 14.4 17.5 83 1.8 ESE 46 57 25 31 1014.5 1014.4 0.0
26/11:00pm 20.4 13.8 17.4 83 1.8 ESE 48 57 26 31 1014.9 1014.8 0.0
26/10:30pm 20.4 14.8 17.8 85 1.6 ESE 44 56 24 30 1014.8 1014.7 0.0
26/10:00pm 20.2 13.7 17.6 85 1.6 ESE 48 57 26 31 1015.2 1015.1 0.0
26/09:30pm 20.3 12.8 17.9 86 1.5 ESE 54 61 29 33 1015.2 1015.1 0.0
26/09:00pm 20.4 14.5 18.0 86 1.5 ESE 46 54 25 29 1015.7 1015.6 0.0
26/08:30pm 20.4 14.8 17.8 85 1.6 ESE 44 54 24 29 1015.8 1015.7 0.0
26/08:00pm 20.6 15.8 18.4 87 1.4 ESE 41 48 22 26 1016.4 1016.3 0.0
26/07:30pm 20.6 16.1 18.2 86 1.5 ESE 39 46 21 25 1016.6 1016.5 0.0
26/07:00pm 20.5 15.9 18.1 86 1.5 ESE 39 48 21 26 1016.5 1016.4 0.0
26/06:30pm 20.5 16.3 18.1 86 1.5 ESE 37 44 20 24 1016.6 1016.5 0.0
26/06:00pm 20.5 16.8 18.3 87 1.4 SE 35 43 19 23 1016.6 1016.5 0.0
26/05:30pm 21.0 18.2 18.2 84 1.7 SE 30 37 16 20 1016.7 1016.6 0.0
26/05:00pm 20.7 17.5 18.5 87 1.4 ESE 33 43 18 23 1016.9 1016.8 0.0
26/04:32pm 20.5 15.6 18.1 86 1.5 ESE 41 59 22 32 1016.4 1016.3 0.0
26/04:30pm 20.5 15.0 18.1 86 1.5 ESE 44 59 24 32 1016.5 1016.4 0.0
26/04:00pm 20.3 14.2 17.5 84 1.7 ESE 46 59 25 32 1016.7 1016.6 0.0
26/03:30pm 20.4 15.0 17.8 85 1.6 SE 43 57 23 31 1017.2 1017.1 0.0
26/03:00pm 19.9 12.5 17.1 84 1.7 SE 52 63 28 34 1015.5 1015.4 0.0
26/02:30pm 20.4 14.8 17.4 83 1.8 SE 43 56 23 30 1016.4 1016.3 0.0
26/02:00pm 20.1 13.3 16.9 82 1.9 SE 48 59 26 32 1016.3 1016.2 0.0
26/01:30pm 20.7 14.9 17.3 81 2.1 SE 44 56 24 30 1017.0 1016.9 0.0
26/01:00pm 20.9 14.4 16.5 76 2.7 SE 46 56 25 30 1016.6 1016.5 0.0
26/12:30pm 22.3 16.2 16.1 68 3.7 SE 43 56 23 30 1016.2 1016.1 0.0
26/12:00pm 22.4 17.0 15.0 63 4.4 SE 37 46 20 25 1017.1 1017.0 0.0
26/11:30am 21.8 15.6 14.9 65 4.1 SE 41 50 22 27 1017.7 1017.6 0.0
26/11:00am 21.2 15.1 14.1 64 4.1 ESE 39 48 21 26 1017.9 1017.8 0.0
26/10:30am 21.0 14.2 14.2 65 4.0 ESE 43 48 23 26 1018.3 1018.2 0.0
26/10:00am 20.8 13.9 14.0 65 3.9 ESE 43 50 23 27 1018.7 1018.6 0.0
26/09:30am 20.3 12.5 14.0 67 3.6 ESE 48 57 26 31 1018.7 1018.6 0.0
26/09:00am 19.6 11.8 14.0 70 3.2 E 48 57 26 31 1018.6 1018.5 0.0
26/08:30am 19.4 10.9 14.2 72 3.0 E 52 59 28 32 1018.7 1018.6 0.0
26/08:00am 18.5 9.1 13.8 74 2.7 E 56 63 30 34 1018.6 1018.5 0.0
26/07:30am 18.4 9.5 14.3 77 2.4 E 54 61 29 33 1018.6 1018.5 0.0
26/07:00am 18.2 8.9 14.1 77 2.3 E 56 65 30 35 1018.2 1018.1 0.0
26/06:30am 18.1 9.5 14.0 77 2.3 ESE 52 61 28 33 1018.1 1018.0 0.0
26/06:00am 18.0 9.0 13.9 77 2.3 ESE 54 65 29 35 1017.9 1017.8 0.0
26/05:30am 17.9 8.8 13.8 77 2.3 ESE 54 63 29 34 1017.5 1017.4 0.0
26/05:00am 17.9 8.8 13.8 77 2.3 ESE 54 63 29 34 1017.5 1017.4 0.0
26/04:30am 17.9 8.5 13.8 77 2.3 ESE 56 63 30 34 1017.5 1017.4 0.0
26/04:00am 18.1 9.6 14.4 79 2.1 ESE 52 61 28 33 1017.6 1017.5 0.0
26/03:30am 17.9 10.1 14.0 78 2.2 ESE 48 57 26 31 1017.7 1017.6 0.0
26/03:00am 17.8 9.9 13.9 78 2.2 ESE 48 61 26 33 1017.6 1017.5 0.0
26/02:30am 18.1 10.4 14.4 79 2.1 ESE 48 57 26 31 1018.1 1018.0 0.0
26/02:00am 17.9 10.1 14.2 79 2.1 ESE 48 56 26 30 1018.1 1018.0 0.0
26/01:30am 18.0 10.6 14.1 78 2.2 ESE 46 56 25 30 1018.1 1018.0 0.0
26/01:00am 18.2 11.5 14.7 80 2.0 ESE 43 52 23 28 1018.4 1018.3 0.0
26/12:30am 17.8 10.6 13.7 77 2.3 ESE 44 54 24 29 1018.7 1018.6 0.0
26/12:00am 18.3 10.7 14.8 80 2.0 ESE 48 59 26 32 1019.0 1018.9 0.0

Other formats

Comma delimited format used in spreadsheet applications
http://www.bom.gov.au/fwo/IDW60801/IDW60801.94601.axf

JavaScript Object Notation format (JSON) in row-major order
http://www.bom.gov.au/fwo/IDW60801/IDW60801.94601.json

Data quality

Most of these data are generated automatically and are frequently updated. Quality checks on data are not normally performed. It is possible for incorrect values to appear. Refer to information at About Latest Weather Observations and please check the disclaimer before using these data.